Time;durP1;ratioP1;P1;durP2;ratioP2;P2;SDS_P1;SDS_P2;PMS_P1;PMS_P2;Temp;Humidity;BMP_temperature;BMP_pressure;BME280_temperature;BME280_humidity;BME280_pressure;Samples;Min_cycle;Max_cycle;Signal;HPM_P1;HPM_P2
2024/04/03 00:00:05;;;;;;;0.90;0.40;;;;;;;10.82;43.33;93886.31;5044565;28;20246;-80
2024/04/03 00:02:31;;;;;;;0.70;0.22;;;;;;;10.80;43.63;93883.97;5044719;28;20101;-78
2024/04/03 00:04:56;;;;;;;0.75;0.35;;;;;;;10.78;43.81;93875.50;5044691;28;20021;-78
2024/04/03 00:07:22;;;;;;;1.02;0.43;;;;;;;10.67;44.01;93884.91;5043724;28;20030;-78
2024/04/03 00:09:47;;;;;;;0.77;0.30;;;;;;;10.63;44.14;93878.63;5044428;28;20307;-79
2024/04/03 00:12:13;;;;;;;1.42;0.50;;;;;;;10.58;44.17;93881.44;5044679;28;20033;-80
2024/04/03 00:14:38;;;;;;;1.33;0.40;;;;;;;10.51;44.47;93876.56;5044977;28;20021;-79
2024/04/03 00:17:04;;;;;;;0.60;0.32;;;;;;;10.47;44.47;93880.97;5044451;28;20029;-80
2024/04/03 00:19:29;;;;;;;3.72;0.40;;;;;;;10.49;44.84;93892.09;5043515;28;20096;-81
2024/04/03 00:21:54;;;;;;;2.05;0.50;;;;;;;10.53;44.89;93885.03;5044094;28;20256;-80
2024/04/03 00:24:20;;;;;;;0.52;0.30;;;;;;;10.57;44.95;93896.66;5044091;28;20032;-80
2024/04/03 00:26:45;;;;;;;0.65;0.30;;;;;;;10.57;44.99;93896.66;5044165;28;20093;-80
2024/04/03 00:29:11;;;;;;;5.07;0.32;;;;;;;10.52;45.25;93896.81;5076358;28;20315;-79
2024/04/03 00:31:37;;;;;;;1.17;0.40;;;;;;;10.46;45.26;93895.34;5042826;28;20116;-80
2024/04/03 00:34:03;;;;;;;6.78;0.40;;;;;;;10.41;45.30;93903.50;5043927;28;20100;-80
2024/04/03 00:36:32;;;;;;;0.75;0.45;;;;;;;10.42;45.49;93894.41;5042829;28;20041;-80
2024/04/03 00:38:57;;;;;;;1.17;0.50;;;;;;;10.39;45.62;93889.72;5044208;28;20025;-79
2024/04/03 00:41:23;;;;;;;2.80;0.60;;;;;;;10.28;45.79;93888.41;5043817;28;20025;-79
2024/04/03 00:43:49;;;;;;;2.25;0.40;;;;;;;10.25;45.95;93887.91;5043613;28;20255;-79
2024/04/03 00:46:15;;;;;;;0.22;0.20;;;;;;;10.24;45.90;93883.69;5043593;28;20025;-80
2024/04/03 00:48:41;;;;;;;2.40;0.40;;;;;;;10.24;45.89;93882.94;5043914;28;20096;-79
2024/04/03 00:51:07;;;;;;;2.40;0.40;;;;;;;10.27;46.11;93887.63;5043729;28;20056;-79
2024/04/03 00:53:33;;;;;;;0.95;0.30;;;;;;;10.17;45.78;93888.69;5042613;28;20037;-79
2024/04/03 00:55:59;;;;;;;0.55;0.25;;;;;;;10.17;46.19;93887.91;5043887;28;20102;-79
2024/04/03 00:58:24;;;;;;;0.82;0.40;;;;;;;10.14;46.19;93888.53;5043508;28;20227;-79
2024/04/03 01:00:49;;;;;;;0.70;0.40;;;;;;;10.08;46.54;93885.22;5043708;28;20033;-79
2024/04/03 01:03:15;;;;;;;0.95;0.40;;;;;;;10.04;46.73;93892.25;5043768;28;20022;-80
2024/04/03 01:05:40;;;;;;;3.72;0.65;;;;;;;10.01;46.99;93891.00;5043819;28;20025;-79
2024/04/03 01:08:06;;;;;;;2.00;0.43;;;;;;;10.01;46.88;93888.34;5043399;28;20055;-79
2024/04/03 01:10:32;;;;;;;0.75;0.40;;;;;;;9.97;47.06;93887.38;5043708;28;20043;-79
2024/04/03 01:13:01;;;;;;;1.75;0.65;;;;;;;10.02;47.21;93886.47;5043518;28;20028;-80
2024/04/03 01:15:26;;;;;;;1.85;0.40;;;;;;;9.94;47.49;93889.88;5043056;28;20021;-80
2024/04/03 01:17:52;;;;;;;0.93;0.40;;;;;;;9.86;47.36;93888.75;5043044;28;20330;-79
2024/04/03 01:20:17;;;;;;;0.63;0.32;;;;;;;9.86;47.33;93896.72;5043046;28;20057;-79
2024/04/03 01:22:42;;;;;;;0.30;0.30;;;;;;;9.84;47.40;93894.38;5043049;28;20135;-80
2024/04/03 01:25:09;;;;;;;0.73;0.50;;;;;;;9.79;46.64;93894.53;5043226;28;20282;-79
2024/04/03 01:27:34;;;;;;;0.52;0.22;;;;;;;9.88;46.56;93888.44;5043000;28;20105;-79
2024/04/03 01:29:59;;;;;;;0.30;0.20;;;;;;;9.98;46.63;93894.28;5043239;28;20025;-81
2024/04/03 01:32:25;;;;;;;1.02;0.40;;;;;;;10.06;46.48;93897.28;5043227;28;20079;-79
2024/04/03 01:34:51;;;;;;;5.15;0.65;;;;;;;10.14;46.24;93886.66;5043102;28;20049;-79
2024/04/03 01:37:17;;;;;;;2.22;0.30;;;;;;;10.11;46.06;93884.59;5042781;28;20045;-79
2024/04/03 01:39:44;;;;;;;3.00;0.50;;;;;;;10.11;45.66;93884.59;5042900;28;20028;-80
2024/04/03 01:42:11;;;;;;;0.77;0.40;;;;;;;10.11;45.88;93905.13;5042891;28;20088;-79
2024/04/03 01:44:36;;;;;;;0.57;0.30;;;;;;;10.16;45.60;93889.78;5042859;28;20028;-79
2024/04/03 01:47:03;;;;;;;0.82;0.47;;;;;;;10.30;45.00;93886.25;5042567;28;20044;-79
2024/04/03 01:49:28;;;;;;;1.65;0.43;;;;;;;10.36;44.34;93879.66;5041557;28;20025;-79
2024/04/03 01:51:54;;;;;;;0.68;0.28;;;;;;;10.41;44.26;93879.53;5042723;28;20060;-79
2024/04/03 01:54:19;;;;;;;1.98;0.50;;;;;;;10.41;44.07;93882.97;5042900;28;20028;-79
2024/04/03 01:56:44;;;;;;;1.35;0.40;;;;;;;10.40;44.27;93872.63;5042667;28;20021;-79
2024/04/03 01:59:10;;;;;;;0.40;0.30;;;;;;;10.37;44.16;93876.69;5042691;28;20024;-80
2024/04/03 02:01:35;;;;;;;1.98;0.30;;;;;;;10.45;43.83;93885.81;5042271;28;20017;-80
2024/04/03 02:04:00;;;;;;;1.58;0.40;;;;;;;10.41;43.85;93890.19;5042576;28;20048;-80
2024/04/03 02:06:26;;;;;;;1.15;0.30;;;;;;;10.45;43.52;93888.47;5042602;28;20021;-79
2024/04/03 02:08:51;;;;;;;0.20;0.20;;;;;;;10.50;43.18;93893.66;5042343;28;20311;-78
2024/04/03 02:11:16;;;;;;;1.58;0.40;;;;;;;10.55;43.21;93892.72;5042412;28;20024;-79
2024/04/03 02:13:42;;;;;;;0.88;0.40;;;;;;;10.60;43.16;93896.03;5042412;28;20216;-79
2024/04/03 02:16:07;;;;;;;0.40;0.30;;;;;;;10.57;42.70;93896.66;5042467;28;20128;-79
2024/04/03 02:18:33;;;;;;;1.80;0.32;;;;;;;10.60;42.82;93887.22;5042424;28;20021;-79
2024/04/03 02:20:58;;;;;;;0.85;0.30;;;;;;;10.59;42.36;93886.47;5041112;28;20262;-78
2024/04/03 02:23:23;;;;;;;0.60;0.35;;;;;;;10.61;42.19;93884.25;5042213;28;20159;-79
2024/04/03 02:25:49;;;;;;;0.60;0.32;;;;;;;10.62;41.57;93883.19;5042366;28;20022;-79
2024/04/03 02:28:14;;;;;;;2.15;0.40;;;;;;;10.67;41.61;93889.47;5042197;28;20029;-79
2024/04/03 02:30:40;;;;;;;1.98;0.30;;;;;;;10.66;43.06;93882.53;5045257;28;20047;-79
2024/04/03 02:33:06;;;;;;;0.63;0.50;;;;;;;10.69;43.46;93887.25;5046140;28;20021;-79
2024/04/03 02:35:31;;;;;;;3.28;0.60;;;;;;;10.69;44.31;93888.03;5045972;28;20053;-79
2024/04/03 02:37:57;;;;;;;1.25;0.63;;;;;;;10.70;44.64;93891.47;5046101;28;20029;-79
2024/04/03 02:40:22;;;;;;;1.60;0.52;;;;;;;10.67;44.80;93892.13;5046070;28;20242;-79
2024/04/03 02:42:47;;;;;;;5.00;0.80;;;;;;;10.63;44.94;93889.28;5044381;28;20338;-80
2024/04/03 02:45:13;;;;;;;1.30;0.50;;;;;;;10.63;44.81;93890.06;5045999;28;20025;-81
2024/04/03 02:47:38;;;;;;;4.55;0.45;;;;;;;10.67;45.18;93897.47;5046281;28;20037;-81
2024/04/03 02:50:04;;;;;;;1.15;0.50;;;;;;;10.67;45.43;93900.91;5045963;28;20048;-81
2024/04/03 02:52:29;;;;;;;2.03;0.60;;;;;;;10.62;45.84;93906.38;5046028;28;20041;-80
2024/04/03 02:54:55;;;;;;;6.85;0.70;;;;;;;10.68;46.20;93913.13;5045960;28;20051;-81
2024/04/03 02:57:20;;;;;;;3.50;0.50;;;;;;;10.67;46.09;93916.88;5045907;28;20025;-81
2024/04/03 02:59:45;;;;;;;3.58;1.00;;;;;;;10.65;46.41;93911.09;5045819;28;20374;-81
2024/04/03 03:02:11;;;;;;;1.15;0.50;;;;;;;10.63;46.52;93911.41;5045665;28;20118;-79
2024/04/03 03:04:43;;;;;;;1.00;0.60;;;;;;;10.59;46.50;93915.00;5045499;28;20041;-79
2024/04/03 03:07:09;;;;;;;2.88;0.85;;;;;;;10.53;46.92;93914.34;5045933;28;20021;-80
2024/04/03 03:09:36;;;;;;;3.15;1.50;;;;;;;10.41;46.96;93922.94;5045352;28;20096;-80
2024/04/03 03:12:02;;;;;;;3.13;0.98;;;;;;;10.38;47.10;93925.44;5045478;28;20188;-81
2024/04/03 03:14:28;;;;;;;4.10;1.00;;;;;;;10.33;47.63;93936.25;5045414;28;20033;-81
2024/04/03 03:16:53;;;;;;;6.78;1.30;;;;;;;10.32;47.50;93947.97;5045568;28;20288;-80
2024/04/03 03:19:19;;;;;;;3.60;0.88;;;;;;;10.18;47.96;93954.19;5045373;28;20040;-78
2024/04/03 03:21:44;;;;;;;4.72;1.42;;;;;;;10.09;48.14;93947.25;5045551;28;20026;-77
2024/04/03 03:24:10;;;;;;;2.40;1.08;;;;;;;10.02;49.26;93956.47;5045181;28;20088;-77
2024/04/03 03:26:35;;;;;;;5.55;1.20;;;;;;;9.93;49.09;93947.69;5045078;28;20258;-78
2024/04/03 03:29:00;;;;;;;2.38;1.00;;;;;;;9.82;49.15;93949.00;5044980;28;20369;-78
2024/04/03 03:31:28;;;;;;;2.30;1.25;;;;;;;9.82;50.00;93939.16;5045030;28;20102;-78
2024/04/03 03:33:53;;;;;;;7.40;2.25;;;;;;;9.75;49.42;93946.78;5044856;28;20049;-77
2024/04/03 03:36:19;;;;;;;4.00;1.50;;;;;;;9.75;50.03;93952.13;5044616;28;20029;-77
2024/04/03 03:38:44;;;;;;;2.97;1.23;;;;;;;9.64;49.70;93946.25;5044799;28;20101;-78
2024/04/03 03:41:10;;;;;;;7.18;1.30;;;;;;;9.63;49.94;93959.88;5044979;28;20029;-79
2024/04/03 03:43:35;;;;;;;8.05;1.40;;;;;;;9.56;50.10;93959.50;5044528;28;20053;-78
2024/04/03 03:46:00;;;;;;;5.10;0.90;;;;;;;9.52;50.40;93958.53;5044566;28;20138;-78
2024/04/03 03:54:01;;;;;;;3.78;0.70;;;;;;;9.32;50.09;93959.81;5044490;28;20052;-78
2024/04/03 03:56:27;;;;;;;3.05;1.02;;;;;;;9.27;49.58;93960.72;5044466;28;20024;-79
2024/04/03 03:58:52;;;;;;;2.75;0.50;;;;;;;9.24;49.54;93953.38;5044387;28;20017;-78
2024/04/03 04:01:18;;;;;;;1.00;0.45;;;;;;;9.29;49.37;93971.84;5044376;28;20091;-79
2024/04/03 04:03:43;;;;;;;0.90;0.45;;;;;;;9.30;49.36;93973.44;5044195;28;20031;-77
2024/04/03 04:06:09;;;;;;;2.20;0.60;;;;;;;9.29;49.39;93974.50;5044684;28;20041;-78
2024/04/03 04:08:34;;;;;;;4.68;0.40;;;;;;;9.28;49.37;93975.59;5044383;28;20046;-78
2024/04/03 04:11:00;;;;;;;2.60;0.50;;;;;;;9.28;49.51;93980.13;5044370;28;20136;-79
2024/04/03 04:13:26;;;;;;;3.08;0.45;;;;;;;9.31;49.19;93976.88;5044024;28;20075;-79
2024/04/03 04:15:52;;;;;;;0.55;0.40;;;;;;;9.27;48.98;93983.88;5044190;28;20033;-79
2024/04/03 04:18:17;;;;;;;0.60;0.30;;;;;;;9.26;49.24;93991.09;5076245;28;20213;-79
2024/04/03 04:20:51;;;;;;;2.20;0.55;;;;;;;9.28;49.35;93986.25;5044214;28;20308;-79
2024/04/03 04:23:17;;;;;;;2.40;0.63;;;;;;;9.29;49.37;93987.81;5043946;28;20021;-79
2024/04/03 04:25:56;;;;;;;0.40;0.30;;;;;;;9.31;49.22;93990.16;5043876;28;20075;-80
2024/04/03 04:28:24;;;;;;;2.55;0.45;;;;;;;9.32;48.90;93981.91;5043879;28;20029;-79
2024/04/03 04:31:16;;;;;;;3.15;0.50;;;;;;;9.38;49.14;93983.34;5043940;28;20029;-81
2024/04/03 04:33:41;;;;;;;3.13;0.50;;;;;;;9.43;49.26;93982.44;5042848;28;20208;-78
2024/04/03 04:36:07;;;;;;;3.08;0.70;;;;;;;9.51;49.18;93991.56;5043745;28;20375;-78
2024/04/03 04:38:32;;;;;;;1.42;0.52;;;;;;;9.55;48.64;93997.88;5043766;28;20029;-78
2024/04/03 04:41:03;;;;;;;1.77;0.65;;;;;;;9.67;48.54;93986.66;5043549;28;20060;-79
2024/04/03 04:43:30;;;;;;;0.65;0.40;;;;;;;9.76;48.51;93996.25;5043420;28;20071;-78
2024/04/03 04:46:04;;;;;;;1.65;0.60;;;;;;;9.81;48.61;93998.00;5043605;28;20040;-79
2024/04/03 04:48:31;;;;;;;5.22;0.55;;;;;;;9.87;48.58;93996.00;5042738;28;20067;-79
2024/04/03 04:51:05;;;;;;;0.57;0.30;;;;;;;9.99;48.22;93998.91;5043989;28;20071;-80
2024/04/03 04:53:30;;;;;;;2.25;1.08;;;;;;;10.12;48.12;93997.25;5043370;28;20056;-80
2024/04/03 04:56:05;;;;;;;8.43;1.02;;;;;;;10.22;48.35;94003.09;5042064;28;20033;-79
2024/04/03 04:58:31;;;;;;;6.78;1.25;;;;;;;10.27;48.48;94004.06;5043490;28;20059;-78
2024/04/03 05:01:04;;;;;;;21.13;2.75;;;;;;;10.37;48.35;94003.81;5042180;28;20021;-78
2024/04/03 05:03:31;;;;;;;23.98;2.05;;;;;;;10.41;48.52;94008.22;5043381;28;20029;-79
2024/04/03 05:05:56;;;;;;;17.08;1.98;;;;;;;10.43;48.83;94000.69;5042036;28;20058;-79
2024/04/03 05:08:22;;;;;;;10.02;2.05;;;;;;;10.46;49.00;94007.28;5043203;28;20032;-79
2024/04/03 05:10:49;;;;;;;13.77;1.95;;;;;;;10.42;49.15;94012.47;5043288;28;20377;-79
2024/04/03 05:13:15;;;;;;;13.18;1.45;;;;;;;10.52;49.34;93999.94;5043539;28;20059;-79
2024/04/03 05:15:41;;;;;;;14.45;1.90;;;;;;;10.54;49.33;93998.56;5042263;28;20025;-79
2024/04/03 05:18:06;;;;;;;10.35;1.65;;;;;;;10.58;49.42;94012.03;5043196;28;20025;-79
2024/04/03 05:20:32;;;;;;;14.02;2.50;;;;;;;10.56;50.29;94003.56;5043198;28;20044;-79
2024/04/03 05:22:57;;;;;;;11.93;2.40;;;;;;;10.68;50.64;94013.63;5042684;28;20021;-78
2024/04/03 05:25:22;;;;;;;12.18;2.22;;;;;;;10.74;50.67;94015.06;5042585;28;20017;-78
2024/04/03 05:27:48;;;;;;;16.45;2.85;;;;;;;10.79;50.49;94015.72;5042499;28;20017;-78
2024/04/03 05:30:13;;;;;;;10.82;2.55;;;;;;;10.80;50.52;94016.50;5042525;28;20097;-79
2024/04/03 05:32:39;;;;;;;12.30;2.67;;;;;;;10.78;50.87;94018.69;5042566;28;20319;-79
2024/04/03 05:35:05;;;;;;;12.30;2.83;;;;;;;10.81;50.42;94010.84;5042316;28;20017;-79
2024/04/03 05:37:30;;;;;;;10.05;3.03;;;;;;;10.82;50.47;94017.75;5042363;28;20311;-79
2024/04/03 05:39:55;;;;;;;22.60;3.05;;;;;;;10.87;49.89;94016.84;5042105;28;20024;-77
2024/04/03 05:42:21;;;;;;;14.52;2.88;;;;;;;10.90;49.61;94016.19;5043681;28;20085;-87
2024/04/03 05:44:46;;;;;;;14.15;3.05;;;;;;;10.89;50.52;94014.63;5042948;28;20067;-85
2024/04/03 05:47:11;;;;;;;7.40;3.17;;;;;;;10.93;50.91;94014.78;5043645;28;20025;-83
2024/04/03 05:49:37;;;;;;;14.95;2.75;;;;;;;11.02;49.96;94016.38;5042178;28;20018;-83
2024/04/03 05:52:03;;;;;;;6.75;2.30;;;;;;;11.08;49.19;94017.00;5042792;28;20018;-84
2024/04/03 05:54:28;;;;;;;20.73;2.95;;;;;;;11.13;48.43;94022.19;5042921;28;20021;-87
2024/04/03 05:56:54;;;;;;;31.33;3.80;;;;;;;11.19;48.22;94022.81;5042801;28;20025;-88
2024/04/03 05:59:20;;;;;;;22.20;5.70;;;;;;;11.26;48.21;94023.16;5042014;28;20406;-87
2024/04/03 06:01:46;;;;;;;24.65;3.88;;;;;;;11.31;47.87;94028.34;5075058;28;20057;-89
2024/04/03 06:04:11;;;;;;;15.23;1.88;;;;;;;11.36;48.28;94022.06;5043164;28;20032;-84
2024/04/03 06:06:36;;;;;;;9.80;1.80;;;;;;;11.42;47.80;94020.81;5046590;28;20024;-82
2024/04/03 06:09:04;;;;;;;9.63;2.20;;;;;;;11.49;47.48;94025.69;5045229;28;20075;-83
2024/04/03 06:11:29;;;;;;;20.45;2.17;;;;;;;11.58;48.14;94021.91;5045909;28;20029;-83
2024/04/03 06:13:55;;;;;;;10.80;1.55;;;;;;;11.63;47.37;94026.31;5046725;28;20021;-81
2024/04/03 06:16:21;;;;;;;7.43;1.95;;;;;;;11.71;46.94;94044.22;5044749;28;20254;-87
2024/04/03 06:18:46;;;;;;;7.93;3.25;;;;;;;11.76;47.23;94044.03;5045061;28;20024;-87
2024/04/03 06:21:13;;;;;;;10.75;2.55;;;;;;;11.82;46.79;94039.31;5044609;28;20210;-85
2024/04/03 06:23:38;;;;;;;14.07;1.67;;;;;;;11.86;47.08;94040.25;5044581;28;21455;-77
2024/04/03 06:26:04;;;;;;;23.48;2.88;;;;;;;11.90;46.83;94029.75;5044220;28;20049;-77
2024/04/03 06:28:30;;;;;;;5.65;1.98;;;;;;;11.95;46.36;94035.72;5044352;28;20254;-77
2024/04/03 06:30:55;;;;;;;6.97;1.60;;;;;;;12.02;46.65;94029.91;5045337;28;20025;-78
2024/04/03 06:33:21;;;;;;;10.65;1.33;;;;;;;12.05;46.33;94037.28;5045773;28;20032;-78
2024/04/03 06:35:46;;;;;;;5.35;1.77;;;;;;;12.07;45.89;94045.78;5045783;28;20095;-78
2024/04/03 06:38:12;;;;;;;14.00;2.60;;;;;;;12.12;46.26;94040.25;5045943;28;20025;-79
2024/04/03 06:40:38;;;;;;;14.68;2.00;;;;;;;12.17;46.12;94044.63;5046174;28;20021;-78
2024/04/03 06:43:04;;;;;;;9.90;1.77;;;;;;;12.28;45.60;94047.78;5045664;28;20041;-78
2024/04/03 06:45:30;;;;;;;11.32;2.42;;;;;;;12.29;45.20;94047.44;5045729;28;20032;-76
2024/04/03 06:47:55;;;;;;;9.98;1.60;;;;;;;12.22;45.25;94047.16;5045665;28;20096;-78
2024/04/03 06:50:21;;;;;;;8.20;1.70;;;;;;;12.27;45.30;94043.50;5045594;28;20259;-77
2024/04/03 06:52:47;;;;;;;18.52;1.88;;;;;;;12.29;45.24;94046.66;5045697;28;20014;-78
2024/04/03 06:55:12;;;;;;;12.32;2.28;;;;;;;12.41;44.46;94044.09;5045945;28;20029;-78
2024/04/03 06:57:38;;;;;;;12.52;2.20;;;;;;;12.48;44.26;94048.97;5045713;28;20024;-78
2024/04/03 07:00:04;;;;;;;19.50;2.42;;;;;;;12.43;44.53;94056.03;5045502;28;20319;-80
2024/04/03 07:02:29;;;;;;;5.80;2.00;;;;;;;12.37;45.20;94059.97;5045456;28;20032;-78
2024/04/03 07:04:54;;;;;;;11.93;3.53;;;;;;;12.36;45.26;94060.31;5045353;28;20053;-78
2024/04/03 07:07:20;;;;;;;14.50;3.28;;;;;;;12.46;45.07;94062.66;5045262;28;20041;-79
2024/04/03 07:09:45;;;;;;;10.15;1.65;;;;;;;12.49;43.61;94062.00;5045090;28;20013;-81
2024/04/03 07:12:11;;;;;;;6.82;2.03;;;;;;;12.47;43.71;94061.53;5045777;28;20277;-81
2024/04/03 07:14:36;;;;;;;8.93;2.50;;;;;;;12.48;44.20;94060.44;5045424;28;20026;-81
2024/04/03 07:17:01;;;;;;;7.68;2.05;;;;;;;12.52;44.45;94066.72;5044977;28;20037;-81
2024/04/03 07:19:27;;;;;;;16.52;2.10;;;;;;;12.56;43.85;94061.53;5045078;28;20032;-81
2024/04/03 07:21:53;;;;;;;11.73;2.28;;;;;;;12.61;44.15;94054.09;5045190;28;20029;-81
2024/04/03 07:24:19;;;;;;;7.90;2.05;;;;;;;12.65;44.43;94059.59;5045190;28;20040;-81
2024/04/03 07:26:46;;;;;;;14.35;2.70;;;;;;;12.80;42.90;94067.09;5045345;28;20047;-81
2024/04/03 07:29:14;;;;;;;6.22;1.65;;;;;;;12.85;42.47;94060.78;5045192;28;20026;-81
2024/04/03 07:31:39;;;;;;;23.00;4.38;;;;;;;12.90;42.45;94063.25;5045287;28;20327;-81
2024/04/03 07:34:05;;;;;;;9.95;2.03;;;;;;;12.92;42.34;94061.03;5044845;28;20028;-81
2024/04/03 07:36:30;;;;;;;3.63;1.52;;;;;;;12.99;41.53;94055.97;5043509;28;20331;-77
2024/04/03 07:38:56;;;;;;;4.28;1.00;;;;;;;12.96;41.37;94048.59;5044789;28;20028;-77
2024/04/03 07:41:29;;;;;;;3.33;1.13;;;;;;;12.92;40.64;94050.34;5044755;28;20021;-77
2024/04/03 07:43:55;;;;;;;7.65;1.60;;;;;;;12.90;41.56;94055.22;5044514;28;20044;-78
2024/04/03 07:46:20;;;;;;;6.95;1.40;;;;;;;12.96;41.62;94056.59;5044581;28;20242;-78
2024/04/03 07:48:46;;;;;;;7.13;1.60;;;;;;;12.97;41.77;94060.88;5043395;28;20052;-81
2024/04/03 07:51:11;;;;;;;8.23;1.63;;;;;;;12.92;42.29;94050.34;5044848;28;20067;-78
2024/04/03 07:53:37;;;;;;;8.57;3.70;;;;;;;12.99;42.25;94057.88;5044423;28;20013;-79
2024/04/03 07:56:03;;;;;;;6.18;1.45;;;;;;;13.08;40.74;94050.56;5044485;28;20259;-80
2024/04/03 07:58:29;;;;;;;5.60;1.80;;;;;;;13.15;40.61;94042.06;5044459;28;20059;-79
2024/04/03 08:00:59;;;;;;;7.15;1.75;;;;;;;13.24;41.06;94037.41;5044803;28;20017;-81
2024/04/03 08:03:24;;;;;;;11.00;1.75;;;;;;;13.29;41.33;94044.47;5044265;28;20032;-77
2024/04/03 08:05:54;;;;;;;7.15;1.35;;;;;;;13.37;40.58;94051.69;5044149;28;20184;-77
2024/04/03 08:08:22;;;;;;;6.68;1.55;;;;;;;13.51;40.68;94046.06;5044344;28;20104;-77
2024/04/03 08:10:47;;;;;;;12.85;1.70;;;;;;;13.63;40.11;94048.81;5044013;28;20033;-77
2024/04/03 08:13:12;;;;;;;11.00;2.08;;;;;;;13.76;40.51;94042.41;5044105;28;20017;-78
2024/04/03 08:15:38;;;;;;;6.18;1.88;;;;;;;13.89;40.47;94037.88;5044190;28;20032;-77
2024/04/03 08:18:03;;;;;;;7.28;1.80;;;;;;;13.99;39.73;94042.06;5042778;28;20034;-77
2024/04/03 08:20:29;;;;;;;6.93;1.40;;;;;;;14.02;36.90;94044.88;5043987;28;20033;-77
2024/04/03 08:22:54;;;;;;;8.70;1.35;;;;;;;14.02;37.85;94046.75;5043815;28;20049;-77
2024/04/03 08:25:19;;;;;;;3.63;0.82;;;;;;;14.11;35.70;94047.47;5044009;28;20370;-76
2024/04/03 08:27:45;;;;;;;6.07;1.17;;;;;;;14.17;35.56;94035.41;5042869;28;20021;-77
2024/04/03 08:30:10;;;;;;;4.65;0.77;;;;;;;14.18;35.76;94049.59;5043937;28;20036;-77
2024/04/03 08:32:38;;;;;;;5.72;0.85;;;;;;;14.30;35.29;94038.13;5043643;28;20387;-77
2024/04/03 08:35:04;;;;;;;4.68;0.75;;;;;;;14.35;34.89;94040.59;5043535;28;20048;-76
2024/04/03 08:37:29;;;;;;;9.38;1.23;;;;;;;14.42;34.89;94044.28;5043684;28;20219;-76
2024/04/03 08:39:54;;;;;;;4.13;0.70;;;;;;;14.44;34.64;94043.97;5043689;28;20226;-76
2024/04/03 08:42:20;;;;;;;3.22;0.90;;;;;;;14.54;34.34;94046.22;5043483;28;20022;-76
2024/04/03 08:44:46;;;;;;;3.45;0.93;;;;;;;14.55;34.09;94047.00;5043395;28;20211;-76
2024/04/03 08:47:13;;;;;;;3.00;0.68;;;;;;;14.61;34.77;94046.50;5043441;28;20385;-76
2024/04/03 08:49:39;;;;;;;4.70;0.70;;;;;;;14.73;33.59;94044.94;5043733;28;20029;-76
2024/04/03 08:52:12;;;;;;;1.42;0.52;;;;;;;14.75;33.45;94038.09;5043368;28;20067;-77
2024/04/03 08:54:42;;;;;;;3.20;0.90;;;;;;;14.88;33.54;94027.38;5043283;28;20311;-77
2024/04/03 08:57:08;;;;;;;8.20;0.82;;;;;;;14.99;34.39;94031.19;5043527;28;20028;-87
2024/04/03 08:59:35;;;;;;;11.93;1.13;;;;;;;15.04;33.70;94030.94;5043781;28;20021;-87
2024/04/03 09:02:01;;;;;;;6.90;1.10;;;;;;;15.04;33.57;94018.31;5042546;28;20045;-81
2024/04/03 09:04:28;;;;;;;5.32;1.20;;;;;;;15.01;32.97;94045.81;5042805;28;20017;-81
2024/04/03 09:06:54;;;;;;;9.88;1.05;;;;;;;15.13;33.06;94025.47;5043041;28;20055;-81
2024/04/03 09:09:24;;;;;;;4.18;0.65;;;;;;;15.22;29.51;94031.50;5043116;28;20021;-80
2024/04/03 09:11:51;;;;;;;3.03;1.50;;;;;;;15.13;29.93;94044.28;5042988;28;20343;-81
2024/04/03 09:14:24;;;;;;;7.22;0.80;;;;;;;15.06;29.30;94036.75;5042994;28;20029;-81
2024/04/03 09:16:50;;;;;;;5.30;0.73;;;;;;;15.03;28.71;94037.44;5043068;28;20021;-81
2024/04/03 09:19:15;;;;;;;16.23;1.73;;;;;;;15.02;30.52;94042.03;5043026;28;20048;-86
2024/04/03 09:21:41;;;;;;;5.60;1.15;;;;;;;15.08;30.49;94041.81;5043044;28;20032;-81
2024/04/03 09:24:10;;;;;;;7.32;0.95;;;;;;;15.09;29.72;94056.81;5043036;28;20025;-84
2024/04/03 09:26:52;;;;;;;7.78;1.38;;;;;;;15.19;30.22;94050.97;5041393;28;20248;-78
2024/04/03 09:29:19;;;;;;;17.17;0.95;;;;;;;15.19;29.07;94048.28;5025073;28;20224;-76
2024/04/03 09:31:45;;;;;;;8.20;0.80;;;;;;;15.28;29.15;94046.25;5042946;28;20192;-86
2024/04/03 09:34:11;;;;;;;3.30;0.90;;;;;;;15.30;28.07;94027.91;5043362;28;20339;-78
2024/04/03 09:36:38;;;;;;;5.60;0.90;;;;;;;15.39;28.42;94030.47;5042803;28;20282;-80
2024/04/03 09:39:03;;;;;;;4.97;1.00;;;;;;;15.49;28.48;94043.44;5042436;28;20037;-80
2024/04/03 09:41:31;;;;;;;6.05;1.15;;;;;;;15.53;28.71;94027.41;5042498;28;20032;-80
2024/04/03 09:44:02;;;;;;;3.45;0.80;;;;;;;15.56;27.99;94030.19;5042523;28;20021;-80
2024/04/03 09:47:05;;;;;;;2.33;0.73;;;;;;;15.50;29.53;94028.09;5042608;28;20025;-81
2024/04/03 09:49:38;;;;;;;5.10;0.85;;;;;;;15.49;28.78;94037.25;5041569;28;20072;-80
2024/04/03 09:52:04;;;;;;;3.25;0.70;;;;;;;15.47;27.75;94021.50;5041433;28;20021;-80
2024/04/03 09:54:30;;;;;;;5.03;1.00;;;;;;;15.51;27.46;94029.66;5042417;28;20092;-80
2024/04/03 09:56:56;;;;;;;5.00;0.68;;;;;;;15.58;27.50;94032.56;5042369;28;20017;-81
2024/04/03 09:59:21;;;;;;;2.92;0.65;;;;;;;15.65;27.66;94009.38;5042565;28;20217;-80
2024/04/03 10:01:47;;;;;;;5.18;0.77;;;;;;;15.78;27.85;94002.06;5042316;28;20068;-80
2024/04/03 10:04:12;;;;;;;2.38;0.65;;;;;;;15.99;27.11;94017.22;5042423;28;20032;-80
2024/04/03 10:06:41;;;;;;;3.40;0.60;;;;;;;16.02;27.36;94011.94;5042228;28;20033;-78
2024/04/03 10:09:33;;;;;;;2.75;0.75;;;;;;;15.90;25.62;94019.28;5042467;28;20013;-78
2024/04/03 10:11:59;;;;;;;2.23;0.80;;;;;;;15.90;25.51;94003.16;5040915;28;20052;-79
2024/04/03 10:14:29;;;;;;;3.92;0.80;;;;;;;15.88;25.82;93998.13;5042805;28;20100;-79
2024/04/03 10:16:55;;;;;;;2.53;0.50;;;;;;;15.95;26.37;94008.25;5042555;28;20037;-80
2024/04/03 10:19:21;;;;;;;1.83;0.60;;;;;;;16.13;26.98;94011.44;5042638;28;20049;-81
2024/04/03 10:21:48;;;;;;;1.35;0.45;;;;;;;16.22;27.48;94004.78;5041874;28;20041;-79
2024/04/03 10:24:14;;;;;;;10.13;1.00;;;;;;;16.18;26.45;94001.22;5041229;28;20025;-80
2024/04/03 10:26:40;;;;;;;1.75;0.50;;;;;;;16.33;26.52;93998.88;5042781;28;20040;-80
2024/04/03 10:29:05;;;;;;;8.30;0.60;;;;;;;16.40;26.32;93991.00;5043006;28;20025;-80
2024/04/03 10:31:30;;;;;;;1.67;0.50;;;;;;;16.49;25.42;93993.53;5042608;28;20029;-79
2024/04/03 10:33:57;;;;;;;9.55;0.60;;;;;;;16.59;25.28;93999.16;5042694;28;20105;-80
2024/04/03 10:36:22;;;;;;;4.22;0.55;;;;;;;16.71;25.46;93989.41;5042156;28;20037;-80
2024/04/03 10:38:48;;;;;;;7.72;1.33;;;;;;;16.67;25.08;93986.66;5042456;28;20349;-80
2024/04/03 10:41:13;;;;;;;1.80;0.63;;;;;;;16.77;25.55;93990.72;5042464;28;20092;-79
2024/04/03 10:43:39;;;;;;;4.55;0.52;;;;;;;16.83;25.40;93994.75;5042554;28;20060;-80
2024/04/03 10:46:11;;;;;;;8.77;0.98;;;;;;;16.99;25.95;93987.41;5042524;28;20026;-80
2024/04/03 10:48:42;;;;;;;2.55;0.70;;;;;;;17.20;26.37;93991.75;5042268;28;20021;-80
2024/04/03 10:51:07;;;;;;;1.92;0.40;;;;;;;17.28;24.76;93990.78;5044101;28;20017;-80
2024/04/03 10:53:34;;;;;;;2.38;0.50;;;;;;;17.36;24.90;93979.00;5045781;28;20346;-80
2024/04/03 10:56:00;;;;;;;2.08;0.98;;;;;;;17.42;24.93;93992.97;5045715;28;20028;-80
2024/04/03 10:58:27;;;;;;;2.95;0.73;;;;;;;17.56;24.42;93981.72;5045969;28;20026;-80
2024/04/03 11:00:53;;;;;;;6.65;0.75;;;;;;;17.70;25.24;93982.00;5045801;28;20083;-80
2024/04/03 11:03:19;;;;;;;2.20;0.70;;;;;;;17.56;24.81;93968.25;5045849;28;20057;-80
2024/04/03 11:05:44;;;;;;;2.55;0.60;;;;;;;17.58;24.70;93958.66;5045794;28;20028;-79
2024/04/03 11:08:11;;;;;;;2.50;0.60;;;;;;;17.58;24.36;93953.25;5046040;28;20017;-80
2024/04/03 11:10:37;;;;;;;3.10;0.57;;;;;;;17.66;24.60;93943.41;5045818;28;20021;-80
2024/04/03 11:13:04;;;;;;;2.17;0.50;;;;;;;17.71;24.97;93929.66;5045574;28;20319;-80
2024/04/03 11:15:29;;;;;;;8.77;0.50;;;;;;;17.82;25.17;93941.41;5045798;28;20017;-80
2024/04/03 11:17:56;;;;;;;1.98;0.50;;;;;;;17.89;24.05;93940.81;5045674;28;20097;-80
2024/04/03 11:20:24;;;;;;;2.38;0.75;;;;;;;17.85;23.97;93937.28;5045397;28;20040;-80
2024/04/03 11:22:52;;;;;;;2.40;0.50;;;;;;;17.82;24.16;93936.03;5045116;28;20045;-79
2024/04/03 11:25:18;;;;;;;1.95;0.73;;;;;;;18.08;24.82;93920.34;5045748;28;20028;-79
2024/04/03 11:27:43;;;;;;;3.42;0.77;;;;;;;18.36;24.27;93915.44;5046045;28;20231;-80
2024/04/03 11:30:09;;;;;;;5.53;0.70;;;;;;;18.35;25.22;93904.97;5045826;28;20223;-79
2024/04/03 11:32:34;;;;;;;1.60;0.65;;;;;;;18.45;23.92;93893.59;5045714;28;20029;-80
2024/04/03 11:35:00;;;;;;;1.80;0.50;;;;;;;18.23;25.09;93901.31;5045231;28;20089;-80